Terminal Aerodrome Forecast
Issued by NWS Shreveport, LA

Home | Current Version | Previous Version | Text Only | Print | Product List | Glossary On
Versions: 1 2 3 4 5 6 7 8 9 10 11 12 13
000
FTUS44 KSHV 161720
TAFGGG
TAF
KGGG 161720Z 1618/1718 19009KT P6SM BKN080 BKN180
     FM162100 16009KT P6SM VCSH SCT050 BKN080
     FM162300 14007KT P6SM -RA BKN040
     FM170300 VRB06KT 2SM SHRA BR OVC010
     FM170900 15005KT 4SM BR VCSH OVC005
     FM171100 14004KT 5SM BR OVC007=

USA.gov is the U.S. government's official web portal to all federal, state and local government web resources and services.